Time;durP1;ratioP1;P1;durP2;ratioP2;P2;SDS_P1;SDS_P2;PMS_P1;PMS_P2;Temp;Humidity;BMP_temperature;BMP_pressure;BME280_temperature;BME280_humidity;BME280_pressure;Samples;Min_cycle;Max_cycle;Signal;HPM_P1;HPM_P2
2022/10/26 00:50:49;;;;;;;59.58;21.08;;;8.60;99.90;;;;;;5029401;28;20180;-67
2022/10/26 01:25:45;;;;;;;98.18;30.05;;;8.30;99.90;;;;;;5026207;28;20095;-67
2022/10/26 01:29:13;;;;;;;86.15;27.65;;;8.30;99.90;;;;;;5023394;28;20053;-67
2022/10/26 01:32:22;;;;;;;77.93;25.98;;;8.30;99.90;;;;;;5012496;28;20103;-67
2022/10/26 01:35:08;;;;;;;80.93;27.67;;;8.30;99.90;;;;;;5025533;28;20055;-67
2022/10/26 01:37:42;;;;;;;101.78;31.63;;;8.40;99.90;;;;;;5025652;28;20034;-67
2022/10/26 01:40:10;;;;;;;99.05;32.70;;;8.40;99.90;;;;;;5025214;28;20443;-67
2022/10/26 01:42:43;;;;;;;94.20;30.55;;;8.40;99.90;;;;;;5025885;28;20048;-67
2022/10/26 01:45:11;;;;;;;121.50;35.85;;;8.40;99.90;;;;;;5025364;28;20053;-67
2022/10/26 01:47:38;;;;;;;112.10;36.28;;;8.50;99.90;;;;;;5041757;28;20029;-67
2022/10/26 01:50:05;;;;;;;130.85;38.10;;;8.60;99.90;;;;;;5024141;28;20057;-67
2022/10/26 01:52:32;;;;;;;142.13;41.30;;;8.50;99.90;;;;;;5008987;28;20129;-67
2022/10/26 01:55:06;;;;;;;142.15;41.75;;;8.50;99.90;;;;;;5028910;28;20051;-67
2022/10/26 01:57:35;;;;;;;156.68;46.80;;;8.50;99.90;;;;;;5006465;28;20484;-67
2022/10/26 02:00:07;;;;;;;159.38;45.42;;;8.50;99.90;;;;;;5022481;28;20045;-67
2022/10/26 02:02:59;;;;;;;149.52;45.08;;;8.50;99.90;;;;;;5023103;28;20186;-67
2022/10/26 02:05:49;;;;;;;148.48;46.33;;;8.60;99.90;;;;;;5025275;28;20106;-67
2022/10/26 02:08:33;;;;;;;167.10;48.92;;;8.60;99.90;;;;;;5008447;28;20080;-67
2022/10/26 02:11:15;;;;;;;160.38;47.53;;;8.60;99.90;;;;;;5025687;28;20692;-67
2022/10/26 02:13:58;;;;;;;153.02;43.63;;;8.60;99.90;;;;;;5025404;28;20037;-67
2022/10/26 02:16:50;;;;;;;129.77;43.15;;;8.60;99.90;;;;;;5024410;28;20080;-67
2022/10/26 02:19:50;;;;;;;142.40;43.53;;;8.70;99.90;;;;;;5025127;28;20516;-67
2022/10/26 02:22:31;;;;;;;123.40;39.90;;;8.60;99.90;;;;;;5020751;28;20064;-67
2022/10/26 02:25:03;;;;;;;126.63;39.08;;;8.70;99.90;;;;;;5029364;28;20053;-66
2022/10/26 02:27:52;;;;;;;123.75;37.97;;;8.70;99.90;;;;;;5024523;28;20041;-67
2022/10/26 02:30:18;;;;;;;121.47;36.88;;;8.70;99.90;;;;;;5028387;28;20041;-67
2022/10/26 02:32:56;;;;;;;108.78;36.17;;;8.80;99.90;;;;;;5026399;28;20037;-67
2022/10/26 02:35:27;;;;;;;122.80;38.78;;;8.80;99.90;;;;;;5009496;28;20042;-67
2022/10/26 02:38:09;;;;;;;115.10;36.63;;;8.80;99.90;;;;;;5006181;28;20046;-67
2022/10/26 02:40:36;;;;;;;;;;;8.70;99.90;;;;;;5028327;28;20060;-67
2022/10/26 02:43:07;;;;;;;96.90;32.55;;;8.80;99.90;;;;;;5022879;28;20297;-67
2022/10/26 02:45:49;;;;;;;111.15;35.42;;;8.80;99.90;;;;;;5024968;28;20046;-67
2022/10/26 02:48:15;;;;;;;109.93;35.85;;;8.80;99.90;;;;;;5023889;28;20092;-67
2022/10/26 02:50:49;;;;;;;118.20;36.17;;;8.80;99.90;;;;;;5007239;28;20144;-67
2022/10/26 02:53:29;;;;;;;110.78;35.42;;;8.80;99.90;;;;;;5025915;28;20128;-67
2022/10/26 02:56:06;;;;;;;106.43;35.60;;;8.80;99.90;;;;;;5025972;28;20116;-66
2022/10/26 02:58:38;;;;;;;120.40;37.53;;;8.90;99.90;;;;;;5027285;28;20069;-67
2022/10/26 03:01:04;;;;;;;119.00;38.92;;;8.80;99.90;;;;;;5006320;28;20049;-67
2022/10/26 03:03:30;;;;;;;121.72;37.15;;;9.00;99.90;;;;;;5025118;28;20091;-67
2022/10/26 03:05:55;;;;;;;112.55;35.80;;;9.00;99.90;;;;;;5017078;28;20424;-67
2022/10/26 03:08:22;;;;;;;119.68;37.28;;;9.00;99.90;;;;;;5021886;28;20064;-67
2022/10/26 03:10:48;;;;;;;113.00;35.05;;;9.00;99.90;;;;;;5022240;28;20125;-67
2022/10/26 03:13:14;;;;;;;111.40;36.80;;;9.10;99.90;;;;;;5026054;28;20564;-67
2022/10/26 03:15:40;;;;;;;123.18;37.40;;;9.00;99.90;;;;;;5029454;28;20037;-67
2022/10/26 03:18:06;;;;;;;120.88;37.72;;;9.10;99.90;;;;;;5026548;28;20136;-67
2022/10/26 03:20:33;;;;;;;114.35;37.28;;;9.10;99.90;;;;;;5023960;28;20041;-67
2022/10/26 03:22:59;;;;;;;117.72;35.90;;;9.10;99.90;;;;;;5006309;28;20053;-67
2022/10/26 03:25:25;;;;;;;104.63;35.42;;;9.20;99.90;;;;;;5027298;28;20041;-66
2022/10/26 03:28:10;;;;;;;119.30;38.00;;;9.20;99.90;;;;;;5042864;28;20047;-67
2022/10/26 03:30:40;;;;;;;112.35;36.30;;;9.10;99.90;;;;;;5031984;28;20477;-67
2022/10/26 03:34:20;;;;;;;111.97;34.65;;;9.20;99.90;;;;;;5048298;28;20044;-67
2022/10/26 03:36:53;;;;;;;122.97;36.78;;;9.20;99.90;;;;;;5011725;28;20931;-67
2022/10/26 03:39:31;;;;;;;110.57;35.05;;;9.20;99.90;;;;;;5027040;28;20071;-67
2022/10/26 03:41:57;;;;;;;109.05;34.15;;;9.20;99.90;;;;;;5023018;28;20057;-67
2022/10/26 03:44:22;;;;;;;98.80;34.45;;;9.10;99.90;;;;;;5030672;28;20041;-67
2022/10/26 03:47:03;;;;;;;100.35;35.25;;;9.20;99.90;;;;;;5029479;28;20901;-67
2022/10/26 03:49:32;;;;;;;116.07;35.03;;;9.10;99.90;;;;;;5027992;28;20072;-67
2022/10/26 03:52:08;;;;;;;103.35;34.45;;;9.20;99.90;;;;;;5043312;28;20076;-67
2022/10/26 03:54:39;;;;;;;104.47;34.53;;;9.10;99.90;;;;;;5010632;28;20050;-67
2022/10/26 03:57:23;;;;;;;107.75;34.08;;;9.10;99.90;;;;;;5028761;28;20511;-67
2022/10/26 04:00:09;;;;;;;105.30;33.55;;;9.20;99.90;;;;;;5005798;28;20045;-67
2022/10/26 04:05:28;;;;;;;94.05;32.80;;;9.00;99.90;;;;;;5028065;28;20127;-67
2022/10/26 04:08:02;;;;;;;93.03;32.03;;;9.00;99.90;;;;;;5027324;28;20052;-66
2022/10/26 04:10:46;;;;;;;108.97;35.83;;;9.10;99.90;;;;;;5027882;28;21573;-67
2022/10/26 04:13:18;;;;;;;100.80;33.63;;;9.00;99.90;;;;;;5028269;28;20119;-67
2022/10/26 04:15:44;;;;;;;105.07;33.67;;;9.10;99.90;;;;;;5011390;28;20044;-67
2022/10/26 04:18:12;;;;;;;104.28;35.90;;;9.10;99.90;;;;;;5029824;28;20038;-66
2022/10/26 04:20:43;;;;;;;105.20;35.58;;;9.20;99.90;;;;;;5005353;28;20087;-66
2022/10/26 04:23:14;;;;;;;99.85;36.38;;;9.20;99.90;;;;;;5018543;28;20124;-65
2022/10/26 04:25:41;;;;;;;113.55;37.25;;;9.20;99.90;;;;;;5020354;28;20037;-66
2022/10/26 04:28:10;;;;;;;94.68;34.72;;;9.30;99.90;;;;;;5006096;28;20046;-66
2022/10/26 04:30:38;;;;;;;111.85;37.38;;;9.30;99.90;;;;;;5009991;28;20554;-66
2022/10/26 04:33:30;;;;;;;100.82;35.20;;;9.40;99.90;;;;;;5025925;28;20456;-66
2022/10/26 04:36:29;;;;;;;111.75;35.53;;;9.40;99.90;;;;;;5022853;28;20041;-66
2022/10/26 04:39:25;;;;;;;109.80;35.70;;;9.40;99.90;;;;;;5006168;28;20132;-66
2022/10/26 04:42:01;;;;;;;121.28;36.85;;;9.50;99.90;;;;;;5023115;28;20049;-66
2022/10/26 04:44:29;;;;;;;123.30;37.63;;;9.60;99.90;;;;;;5027778;28;20060;-66
2022/10/26 04:46:55;;;;;;;102.07;35.88;;;9.60;99.90;;;;;;5012232;28;20431;-66
2022/10/26 04:49:27;;;;;;;110.75;38.30;;;9.60;99.90;;;;;;5029229;28;20045;-66
2022/10/26 04:52:36;;;;;;;118.32;37.97;;;9.60;99.90;;;;;;5013634;28;20103;-66
2022/10/26 04:58:52;;;;;;;101.80;35.13;;;9.60;99.90;;;;;;5017220;28;20045;-66
2022/10/26 05:01:17;;;;;;;109.72;37.15;;;9.60;99.90;;;;;;5010713;28;20042;-66
2022/10/26 05:03:52;;;;;;;100.18;35.33;;;9.70;99.90;;;;;;5021416;28;20044;-66
2022/10/26 05:06:19;;;;;;;97.50;34.50;;;9.70;99.90;;;;;;5005542;28;20041;-66
2022/10/26 05:08:45;;;;;;;104.88;35.88;;;9.70;99.90;;;;;;5030695;28;20033;-66
2022/10/26 05:11:10;;;;;;;104.40;34.72;;;9.70;99.90;;;;;;5030789;28;20037;-66
2022/10/26 05:13:36;;;;;;;113.85;34.70;;;9.80;99.90;;;;;;5027482;28;20079;-66
2022/10/26 05:16:02;;;;;;;105.00;32.65;;;9.80;99.90;;;;;;5022199;28;20096;-66
2022/10/26 05:18:27;;;;;;;102.53;34.40;;;9.80;99.90;;;;;;5018404;28;20163;-66
2022/10/26 05:20:54;;;;;;;112.82;35.00;;;9.90;99.90;;;;;;5023691;28;20038;-66
2022/10/26 05:23:20;;;;;;;103.32;35.50;;;9.90;99.90;;;;;;5008384;28;20312;-66
2022/10/26 05:25:47;;;;;;;104.82;36.35;;;9.90;99.90;;;;;;5038714;28;20138;-66
2022/10/26 05:28:13;;;;;;;111.82;35.65;;;9.90;99.90;;;;;;5025446;28;20041;-67
2022/10/26 05:30:41;;;;;;;114.22;35.35;;;9.90;99.90;;;;;;5026495;28;20053;-66
2022/10/26 05:33:09;;;;;;;106.60;35.50;;;10.00;99.90;;;;;;5028673;28;20065;-66
2022/10/26 05:35:36;;;;;;;102.90;32.53;;;9.90;99.90;;;;;;5027417;28;20433;-66
2022/10/26 05:38:09;;;;;;;118.70;35.72;;;10.00;99.90;;;;;;5033706;28;20026;-66
2022/10/26 05:40:34;;;;;;;98.15;33.42;;;10.10;99.90;;;;;;5031278;28;20045;-66
2022/10/26 05:43:01;;;;;;;115.43;35.15;;;10.10;99.90;;;;;;5030088;28;20063;-66
2022/10/26 05:45:27;;;;;;;109.50;33.63;;;10.10;99.90;;;;;;5015488;28;20047;-66
2022/10/26 05:47:53;;;;;;;102.05;33.97;;;10.10;99.90;;;;;;5045084;28;20061;-66
2022/10/26 05:50:18;;;;;;;99.47;33.47;;;10.10;99.90;;;;;;5004911;28;20490;-66
2022/10/26 05:52:45;;;;;;;99.30;32.20;;;10.10;99.90;;;;;;5032969;28;20041;-66
2022/10/26 05:55:17;;;;;;;96.82;32.25;;;10.10;99.90;;;;;;5030388;28;20056;-66
2022/10/26 05:57:43;;;;;;;103.90;31.77;;;10.10;99.90;;;;;;5030546;28;20038;-66
2022/10/26 06:00:18;;;;;;;98.47;32.15;;;10.20;99.90;;;;;;5026422;28;20311;-66
2022/10/26 06:03:21;;;;;;;92.90;30.60;;;10.20;99.90;;;;;;5025844;28;20083;-66
2022/10/26 06:05:57;;;;;;;93.68;31.23;;;10.20;99.90;;;;;;5025616;28;20045;-66
2022/10/26 06:08:26;;;;;;;85.38;30.25;;;10.20;99.90;;;;;;5025371;28;20052;-66
2022/10/26 06:10:55;;;;;;;82.93;29.80;;;10.20;99.90;;;;;;5009107;28;20046;-66
2022/10/26 06:13:21;;;;;;;85.93;30.23;;;10.10;99.90;;;;;;5026061;28;20065;-66
2022/10/26 06:16:05;;;;;;;86.05;29.77;;;10.10;99.90;;;;;;5032101;28;20061;-66
2022/10/26 06:18:49;;;;;;;96.20;29.95;;;10.10;99.90;;;;;;5014413;28;20132;-66
2022/10/26 06:21:33;;;;;;;98.90;30.08;;;10.10;99.90;;;;;;5029609;28;20041;-66
2022/10/26 06:24:01;;;;;;;90.75;30.30;;;10.20;99.90;;;;;;5032838;28;20046;-66
2022/10/26 06:26:37;;;;;;;85.10;29.08;;;10.20;99.90;;;;;;5030008;28;20045;-66
2022/10/26 06:29:42;;;;;;;86.55;27.63;;;10.20;99.90;;;;;;5030637;28;20041;-66
2022/10/26 06:32:09;;;;;;;89.75;30.20;;;10.20;99.90;;;;;;5023598;28;20527;-66
2022/10/26 06:34:42;;;;;;;87.65;27.60;;;10.20;99.90;;;;;;5030807;28;20052;-66
2022/10/26 06:37:09;;;;;;;88.15;27.77;;;10.30;99.90;;;;;;5031028;28;20381;-66
2022/10/26 06:39:38;;;;;;;80.43;27.70;;;10.20;99.90;;;;;;5021365;28;20077;-66
2022/10/26 06:42:10;;;;;;;91.07;27.48;;;10.40;99.90;;;;;;5031451;28;20037;-66
2022/10/26 06:44:38;;;;;;;84.85;27.85;;;10.40;99.90;;;;;;5027036;28;20045;-66
2022/10/26 06:47:17;;;;;;;83.88;27.58;;;10.30;99.90;;;;;;5030950;28;20084;-66
2022/10/26 06:50:19;;;;;;;86.68;26.02;;;10.40;99.90;;;;;;5030634;28;20073;-66
2022/10/26 06:52:53;;;;;;;81.72;25.70;;;10.50;99.90;;;;;;4987322;28;20069;-66
2022/10/26 06:55:20;;;;;;;87.15;28.60;;;10.50;99.90;;;;;;5023026;28;20037;-66
2022/10/26 06:57:46;;;;;;;86.43;25.95;;;10.50;99.90;;;;;;5023696;28;20048;-66
2022/10/26 07:00:19;;;;;;;84.35;27.42;;;10.70;99.90;;;;;;5024155;28;20369;-66
2022/10/26 07:02:45;;;;;;;73.47;26.55;;;10.60;99.90;;;;;;5021290;28;20040;-66
2022/10/26 07:05:14;;;;;;;82.47;27.40;;;10.70;99.90;;;;;;5024754;28;20377;-66
2022/10/26 07:07:42;;;;;;;86.38;27.30;;;10.70;99.90;;;;;;5025867;28;20044;-66
2022/10/26 07:10:09;;;;;;;79.78;26.00;;;10.70;99.90;;;;;;5024197;28;20073;-66
2022/10/26 07:12:37;;;;;;;88.90;27.58;;;10.70;99.90;;;;;;5026389;28;20049;-67
2022/10/26 07:15:03;;;;;;;84.43;26.30;;;10.80;99.90;;;;;;5011223;28;20196;-67
2022/10/26 07:17:29;;;;;;;77.07;26.63;;;10.80;99.90;;;;;;5024752;28;20033;-67
2022/10/26 07:19:55;;;;;;;78.53;25.80;;;10.90;99.90;;;;;;5010578;28;20369;-66
2022/10/26 07:22:21;;;;;;;89.40;26.42;;;10.90;99.90;;;;;;5011245;28;20049;-67
2022/10/26 07:24:50;;;;;;;96.35;26.52;;;10.90;99.90;;;;;;5006290;28;20050;-67
2022/10/26 07:27:18;;;;;;;85.32;27.05;;;11.00;99.90;;;;;;5024896;28;20049;-67
2022/10/26 07:29:44;;;;;;;62.25;24.60;;;11.10;99.90;;;;;;5027422;28;20068;-67
2022/10/26 07:32:09;;;;;;;78.22;25.25;;;11.20;99.90;;;;;;5023171;28;20081;-67
2022/10/26 07:34:35;;;;;;;77.03;25.15;;;11.20;99.90;;;;;;5044253;28;20038;-68
2022/10/26 07:37:01;;;;;;;76.32;24.67;;;11.40;99.90;;;;;;5029973;28;20049;-68
2022/10/26 07:39:26;;;;;;;89.10;26.00;;;11.50;99.90;;;;;;5025066;28;20041;-69
2022/10/26 07:41:52;;;;;;;69.78;24.65;;;11.60;99.90;;;;;;5027699;28;20088;-67
2022/10/26 07:44:21;;;;;;;69.13;23.45;;;11.60;99.90;;;;;;5019848;28;20044;-66
2022/10/26 07:46:47;;;;;;;78.03;24.60;;;11.80;99.90;;;;;;5023276;28;20049;-67
2022/10/26 07:49:13;;;;;;;69.97;24.02;;;11.80;99.90;;;;;;5024313;28;20407;-67
2022/10/26 07:51:40;;;;;;;70.72;23.45;;;11.90;99.90;;;;;;5006167;28;20476;-68
2022/10/26 07:54:05;;;;;;;80.53;24.67;;;12.00;99.90;;;;;;5013050;28;20029;-67
2022/10/26 07:56:38;;;;;;;67.22;23.10;;;12.00;99.90;;;;;;5027358;28;20048;-67
2022/10/26 07:59:17;;;;;;;64.65;22.27;;;12.00;99.90;;;;;;5035763;28;20485;-67
2022/10/26 08:01:43;;;;;;;73.60;22.13;;;12.10;99.90;;;;;;5025067;28;20038;-67
2022/10/26 08:04:09;;;;;;;69.57;21.90;;;12.10;99.90;;;;;;5023146;28;20045;-67
2022/10/26 08:06:46;;;;;;;63.35;21.23;;;12.10;99.90;;;;;;5020559;28;20042;-67
2022/10/26 08:09:11;;;;;;;67.40;20.95;;;12.20;99.90;;;;;;5024980;28;20046;-67
2022/10/26 08:11:37;;;;;;;68.03;20.58;;;12.20;99.90;;;;;;5029547;28;20108;-67
2022/10/26 08:14:03;;;;;;;61.88;20.58;;;12.30;99.90;;;;;;5012456;28;20037;-68
2022/10/26 08:16:28;;;;;;;70.65;20.35;;;12.20;99.90;;;;;;5029928;28;20099;-67
2022/10/26 08:18:54;;;;;;;62.17;20.77;;;12.20;99.90;;;;;;5029682;28;20377;-67
2022/10/26 08:21:41;;;;;;;49.92;20.00;;;12.10;99.90;;;;;;5013244;28;20045;-67
2022/10/26 08:24:07;;;;;;;48.75;18.92;;;12.10;99.90;;;;;;5033444;28;20069;-67
2022/10/26 08:26:33;;;;;;;65.85;19.88;;;12.10;99.90;;;;;;5026093;28;20045;-68
2022/10/26 08:28:59;;;;;;;56.35;19.17;;;12.20;99.90;;;;;;5030303;28;20038;-67
2022/10/26 08:31:24;;;;;;;58.33;21.90;;;12.20;99.90;;;;;;5030011;28;20404;-67
2022/10/26 08:33:50;;;;;;;61.03;19.85;;;12.20;99.90;;;;;;5014116;28;20473;-67
2022/10/26 08:36:25;;;;;;;58.03;20.92;;;12.40;99.90;;;;;;5010623;28;20429;-67
2022/10/26 08:38:51;;;;;;;56.10;20.90;;;12.50;99.90;;;;;;5027255;28;20132;-67
2022/10/26 08:41:19;;;;;;;54.63;20.25;;;12.50;99.90;;;;;;5046307;28;20053;-67
2022/10/26 08:43:54;;;;;;;60.85;20.25;;;12.60;99.90;;;;;;5031304;28;20041;-67
2022/10/26 08:46:26;;;;;;;53.75;20.45;;;12.70;99.90;;;;;;5030189;28;20136;-68
2022/10/26 08:48:58;;;;;;;55.13;20.65;;;12.80;99.90;;;;;;5029777;28;20033;-67
2022/10/26 08:51:38;;;;;;;60.28;21.10;;;12.90;99.90;;;;;;5027653;28;20057;-67
2022/10/26 08:54:27;;;;;;;56.75;19.85;;;12.90;99.90;;;;;;5024456;28;20041;-67
2022/10/26 08:56:57;;;;;;;62.03;20.27;;;13.10;99.90;;;;;;5021452;28;20044;-67
2022/10/26 08:59:39;;;;;;;70.15;20.27;;;13.30;99.90;;;;;;5049328;28;20059;-67
2022/10/26 09:02:12;;;;;;;55.10;19.00;;;13.30;99.90;;;;;;5011448;28;20041;-65
2022/10/26 09:04:38;;;;;;;68.88;20.75;;;13.30;99.90;;;;;;5023134;28;20288;-65
2022/10/26 09:07:10;;;;;;;51.15;18.85;;;13.60;99.90;;;;;;5020590;28;20052;-65
2022/10/26 09:09:49;;;;;;;48.87;17.70;;;13.70;99.90;;;;;;4999104;28;20405;-65
2022/10/26 09:16:30;;;;;;;54.10;17.92;;;13.80;99.90;;;;;;5011930;28;20526;-65
2022/10/26 09:19:42;;;;;;;51.88;17.15;;;13.90;99.90;;;;;;4999553;28;20730;-65
2022/10/26 09:26:41;;;;;;;52.13;16.25;;;14.20;99.90;;;;;;5007679;28;20049;-65
2022/10/26 09:29:48;;;;;;;44.53;16.92;;;14.50;99.90;;;;;;5048705;28;20459;-65
2022/10/26 09:36:17;;;;;;;46.25;16.15;;;14.80;99.90;;;;;;5034865;28;20063;-65
2022/10/26 09:39:16;;;;;;;36.83;14.88;;;15.00;99.90;;;;;;5010523;28;20040;-65
2022/10/26 09:42:02;;;;;;;54.97;15.43;;;15.10;99.90;;;;;;5007284;28;20119;-65
2022/10/26 09:48:58;;;;;;;41.85;14.35;;;15.30;99.90;;;;;;5044515;28;20059;-66
2022/10/26 09:51:26;;;;;;;33.55;12.63;;;15.40;99.90;;;;;;5041088;28;20045;-66
2022/10/26 09:53:54;;;;;;;36.20;13.20;;;15.50;99.90;;;;;;5020074;28;20481;-65
2022/10/26 09:56:29;;;;;;;32.40;12.40;;;15.60;99.90;;;;;;5026428;28;20046;-66
2022/10/26 09:59:07;;;;;;;32.80;11.23;;;15.70;99.90;;;;;;5009493;28;20033;-66
2022/10/26 10:01:36;;;;;;;32.15;10.82;;;15.70;99.90;;;;;;5028606;28;20045;-66
2022/10/26 10:04:19;;;;;;;28.95;10.65;;;15.80;99.90;;;;;;5012029;28;20095;-66
2022/10/26 10:07:10;;;;;;;26.85;9.75;;;15.70;99.90;;;;;;5022101;28;20042;-65
2022/10/26 10:09:35;;;;;;;29.92;10.43;;;15.80;99.90;;;;;;5019659;28;20037;-66
2022/10/26 10:12:18;;;;;;;26.45;9.45;;;15.90;99.90;;;;;;5030114;28;20045;-66
2022/10/26 10:14:59;;;;;;;30.05;9.93;;;16.10;99.90;;;;;;5020852;28;20042;-66
2022/10/26 10:17:25;;;;;;;28.60;10.23;;;16.30;99.90;;;;;;5025819;28;20488;-66
2022/10/26 10:19:51;;;;;;;30.00;9.50;;;16.40;99.90;;;;;;5028564;28;20146;-66
2022/10/26 10:22:24;;;;;;;26.17;9.38;;;16.50;99.90;;;;;;5027293;28;20045;-66
2022/10/26 10:24:56;;;;;;;27.67;9.75;;;16.60;99.90;;;;;;5013119;28;20099;-66
2022/10/26 10:27:22;;;;;;;27.30;8.80;;;16.70;99.90;;;;;;5012472;28;20041;-66
2022/10/26 10:29:50;;;;;;;25.23;8.52;;;16.80;99.90;;;;;;5010078;28;20041;-66
2022/10/26 10:32:29;;;;;;;21.20;8.30;;;17.00;99.90;;;;;;5029772;28;20087;-66
2022/10/26 10:34:56;;;;;;;21.83;8.70;;;17.00;99.90;;;;;;5012086;28;20038;-66
2022/10/26 10:37:29;;;;;;;24.52;8.27;;;17.10;99.90;;;;;;5037793;28;20041;-68
2022/10/26 10:40:06;;;;;;;27.25;8.50;;;17.20;99.90;;;;;;5027825;28;20041;-66
2022/10/26 10:42:35;;;;;;;21.38;8.25;;;17.20;99.90;;;;;;5041152;28;20056;-66
2022/10/26 10:45:06;;;;;;;24.67;8.82;;;17.20;99.90;;;;;;5027635;28;20458;-67
2022/10/26 10:47:38;;;;;;;25.50;9.07;;;17.20;99.90;;;;;;4995414;28;20133;-66
2022/10/26 10:50:17;;;;;;;28.33;9.27;;;17.20;99.90;;;;;;5013095;28;20507;-68
2022/10/26 10:52:43;;;;;;;28.05;9.38;;;17.20;99.90;;;;;;5029772;28;20041;-66
2022/10/26 10:55:12;;;;;;;28.90;9.50;;;17.20;99.90;;;;;;5027421;28;20034;-67
2022/10/26 10:57:52;;;;;;;30.17;9.68;;;17.10;99.90;;;;;;5027327;28;20037;-66
2022/10/26 11:00:23;;;;;;;33.08;9.55;;;17.10;99.90;;;;;;5021400;28;20041;-67
2022/10/26 11:02:55;;;;;;;37.20;10.43;;;17.20;99.90;;;;;;5028940;28;20041;-66
2022/10/26 11:05:58;;;;;;;35.50;9.50;;;17.20;99.90;;;;;;5030181;28;20046;-66
2022/10/26 11:08:33;;;;;;;33.72;9.88;;;17.30;99.90;;;;;;5029612;28;20048;-67
2022/10/26 11:11:10;;;;;;;26.77;10.50;;;17.40;99.90;;;;;;5026155;28;20395;-66
2022/10/26 11:13:52;;;;;;;36.42;10.32;;;17.50;99.90;;;;;;5030245;28;20511;-66
2022/10/26 11:16:29;;;;;;;25.52;9.13;;;17.50;99.90;;;;;;5029132;28;20071;-67
2022/10/26 11:19:06;;;;;;;23.83;9.57;;;17.40;99.90;;;;;;5030371;28;20045;-66
2022/10/26 11:21:36;;;;;;;29.50;9.10;;;17.50;99.90;;;;;;5028414;28;20120;-66
2022/10/26 11:24:31;;;;;;;26.40;9.65;;;17.50;99.90;;;;;;5029374;28;20179;-66
2022/10/26 11:27:20;;;;;;;28.27;9.15;;;17.50;99.90;;;;;;5021819;28;20513;-66
2022/10/26 11:30:06;;;;;;;28.20;9.50;;;17.50;99.90;;;;;;5028232;28;20099;-67
2022/10/26 11:32:49;;;;;;;32.75;10.30;;;17.40;99.90;;;;;;5042285;28;20092;-67
2022/10/26 11:35:27;;;;;;;26.02;10.27;;;17.50;99.90;;;;;;5022797;28;20041;-66
2022/10/26 11:38:11;;;;;;;33.58;10.18;;;17.50;99.90;;;;;;5027093;28;20060;-65
2022/10/26 11:41:00;;;;;;;32.58;11.25;;;17.50;99.90;;;;;;5027424;28;20477;-66
2022/10/26 11:43:38;;;;;;;25.20;10.25;;;17.50;99.90;;;;;;5029007;28;20050;-66
2022/10/26 11:46:13;;;;;;;28.70;10.13;;;17.60;99.90;;;;;;5020284;28;20041;-66
2022/10/26 11:48:44;;;;;;;32.38;10.82;;;17.70;99.90;;;;;;5030085;28;20140;-67
2022/10/26 11:51:35;;;;;;;31.38;10.68;;;17.70;99.90;;;;;;5021561;28;20037;-66
2022/10/26 11:54:09;;;;;;;30.75;10.50;;;17.70;99.90;;;;;;5027402;28;20041;-66
2022/10/26 11:56:40;;;;;;;29.65;10.27;;;17.80;99.90;;;;;;5024521;28;20091;-68
2022/10/26 11:59:19;;;;;;;28.65;10.45;;;17.80;99.90;;;;;;5027170;28;20033;-66
2022/10/26 12:02:01;;;;;;;26.88;11.13;;;17.80;99.90;;;;;;5026258;28;20415;-66
2022/10/26 12:04:31;;;;;;;32.35;10.57;;;17.70;99.90;;;;;;5023073;28;20132;-68
2022/10/26 12:06:59;;;;;;;29.80;12.43;;;17.70;99.90;;;;;;5025295;28;20087;-66
2022/10/26 12:09:31;;;;;;;32.63;12.02;;;17.80;99.90;;;;;;5023965;28;20072;-66
2022/10/26 12:12:14;;;;;;;36.30;11.05;;;17.80;99.90;;;;;;5026032;28;20030;-66
2022/10/26 12:14:39;;;;;;;29.55;10.80;;;17.80;99.90;;;;;;5025951;28;20029;-66
2022/10/26 12:17:08;;;;;;;33.22;11.18;;;17.90;99.90;;;;;;5026463;28;20079;-67
2022/10/26 12:19:53;;;;;;;29.77;11.82;;;18.00;99.90;;;;;;5029235;28;20041;-66
2022/10/26 12:22:31;;;;;;;33.72;10.77;;;18.00;99.90;;;;;;5030334;28;20053;-66
2022/10/26 12:25:15;;;;;;;32.83;11.05;;;18.00;99.90;;;;;;5028691;28;20124;-66
2022/10/26 12:27:40;;;;;;;33.60;11.07;;;18.00;99.90;;;;;;5028997;28;20052;-67
2022/10/26 12:30:18;;;;;;;33.97;11.90;;;18.00;99.90;;;;;;5018744;28;20036;-69
2022/10/26 12:32:43;;;;;;;31.38;12.40;;;18.00;99.90;;;;;;5026430;28;20037;-67
2022/10/26 12:35:35;;;;;;;35.15;13.10;;;18.00;99.90;;;;;;5009733;28;20038;-66
2022/10/26 12:38:23;;;;;;;36.70;13.27;;;18.00;99.90;;;;;;5011061;28;20523;-67
2022/10/26 12:41:19;;;;;;;39.25;13.40;;;18.00;99.90;;;;;;5040228;28;20111;-67
2022/10/26 12:43:45;;;;;;;38.00;14.13;;;18.00;99.90;;;;;;5027472;28;20114;-67
2022/10/26 12:46:11;;;;;;;44.92;14.52;;;17.90;99.90;;;;;;5028953;28;20044;-68
2022/10/26 12:48:44;;;;;;;49.15;15.82;;;17.80;99.90;;;;;;5032797;28;20395;-69
2022/10/26 12:51:30;;;;;;;49.35;16.60;;;17.80;99.90;;;;;;5032142;28;20044;-70
2022/10/26 12:54:23;;;;;;;41.20;19.27;;;17.80;99.90;;;;;;5022976;28;20057;-68
2022/10/26 12:57:06;;;;;;;47.72;17.65;;;17.80;99.90;;;;;;5032391;28;20034;-66
2022/10/26 13:00:00;;;;;;;47.85;21.60;;;17.80;99.90;;;;;;5027168;28;20142;-66
2022/10/26 13:02:50;;;;;;;48.75;20.95;;;17.90;99.90;;;;;;5024445;28;20069;-67
2022/10/26 13:05:31;;;;;;;39.30;20.45;;;17.80;99.90;;;;;;5033287;28;20460;-69
2022/10/26 13:08:03;;;;;;;52.20;22.92;;;17.70;99.90;;;;;;5032895;28;20049;-66
2022/10/26 13:10:29;;;;;;;49.28;22.92;;;17.80;99.90;;;;;;5032902;28;20053;-67
2022/10/26 13:13:01;;;;;;;53.95;22.80;;;17.80;99.90;;;;;;5033002;28;20467;-67
2022/10/26 13:15:52;;;;;;;52.63;23.42;;;17.90;99.90;;;;;;5032739;28;20068;-66
2022/10/26 13:18:19;;;;;;;49.63;24.00;;;17.90;99.90;;;;;;5048496;28;20033;-69
2022/10/26 13:21:12;;;;;;;50.58;24.45;;;17.90;99.90;;;;;;5032099;28;20045;-68
2022/10/26 13:24:01;;;;;;;46.88;23.10;;;18.00;99.90;;;;;;5022118;28;20034;-68
2022/10/26 13:26:31;;;;;;;44.85;22.73;;;17.90;99.90;;;;;;5042502;28;20036;-66
2022/10/26 13:29:01;;;;;;;35.28;20.50;;;17.90;99.90;;;;;;5029403;28;20049;-67
2022/10/26 13:31:30;;;;;;;50.47;21.55;;;17.90;99.90;;;;;;5030984;28;20072;-68
2022/10/26 13:34:11;;;;;;;43.25;19.90;;;17.90;99.90;;;;;;5030112;28;20064;-68
2022/10/26 13:37:04;;;;;;;45.95;22.02;;;17.90;99.90;;;;;;5028600;28;20061;-67
2022/10/26 13:39:36;;;;;;;42.47;19.80;;;17.90;99.90;;;;;;5028853;28;20053;-67
2022/10/26 13:42:02;;;;;;;46.73;20.07;;;18.00;99.90;;;;;;5025747;28;20045;-66
2022/10/26 13:44:33;;;;;;;45.72;21.02;;;18.00;99.90;;;;;;5025078;28;20041;-68
2022/10/26 13:47:11;;;;;;;50.15;20.30;;;18.00;99.90;;;;;;5028537;28;20048;-68
2022/10/26 13:49:41;;;;;;;45.65;20.70;;;17.90;99.90;;;;;;5025426;28;20038;-68
2022/10/26 13:52:20;;;;;;;41.97;20.95;;;17.80;99.90;;;;;;5021987;28;20041;-66
2022/10/26 13:54:55;;;;;;;44.15;19.60;;;17.80;99.90;;;;;;5026911;28;20396;-66
2022/10/26 13:57:44;;;;;;;47.50;20.20;;;17.90;99.90;;;;;;5022041;28;20049;-67
2022/10/26 14:00:21;;;;;;;42.90;20.15;;;17.90;99.90;;;;;;5020323;28;20041;-66
2022/10/26 14:02:47;;;;;;;41.78;19.40;;;17.90;99.90;;;;;;5022826;28;20037;-66
2022/10/26 14:05:15;;;;;;;47.75;19.20;;;17.90;99.90;;;;;;5008832;28;20045;-65
2022/10/26 14:07:55;;;;;;;42.40;19.55;;;17.90;99.90;;;;;;5021645;28;20052;-66
2022/10/26 14:10:37;;;;;;;45.97;19.90;;;17.80;99.90;;;;;;5024176;28;20048;-67
2022/10/26 14:13:08;;;;;;;42.65;20.02;;;17.90;99.90;;;;;;5024297;28;20315;-67
2022/10/26 14:15:35;;;;;;;44.03;19.65;;;17.90;99.90;;;;;;5027891;28;20494;-66
2022/10/26 14:18:03;;;;;;;46.30;21.20;;;17.80;99.90;;;;;;5024654;28;20095;-67
2022/10/26 14:20:30;;;;;;;45.15;20.50;;;17.80;99.90;;;;;;5010695;28;20120;-67
2022/10/26 14:22:56;;;;;;;46.13;20.23;;;17.80;99.90;;;;;;5024510;28;20496;-66
2022/10/26 14:25:28;;;;;;;46.42;19.73;;;17.80;99.90;;;;;;5025921;28;20041;-68
2022/10/26 14:27:54;;;;;;;44.80;20.38;;;17.80;99.90;;;;;;5026257;28;20492;-67
2022/10/26 14:30:24;;;;;;;45.35;19.88;;;17.70;99.90;;;;;;5024273;28;20045;-66
2022/10/26 14:32:51;;;;;;;47.38;21.52;;;17.70;99.90;;;;;;5023886;28;20507;-66
2022/10/26 14:35:21;;;;;;;46.75;20.73;;;17.70;99.90;;;;;;5024075;28;20091;-66
2022/10/26 14:37:58;;;;;;;54.10;21.30;;;17.60;99.90;;;;;;5024011;28;20125;-67
2022/10/26 14:40:32;;;;;;;50.78;21.95;;;17.50;99.90;;;;;;5020283;28;20270;-66
2022/10/26 14:43:00;;;;;;;58.00;22.77;;;17.50;99.90;;;;;;5025972;28;20463;-65
2022/10/26 14:45:29;;;;;;;50.60;22.77;;;17.40;99.90;;;;;;5008909;28;20112;-65
2022/10/26 14:47:55;;;;;;;54.67;24.02;;;17.30;99.90;;;;;;5023344;28;20068;-65
2022/10/26 14:50:23;;;;;;;47.55;23.05;;;17.20;99.90;;;;;;5024129;28;20083;-65